createdAt,value
2018-08-10T00:00:37.285Z,17.80
2018-08-10T00:03:05.868Z,17.80
2018-08-10T00:05:34.451Z,18.00
2018-08-10T00:08:03.015Z,18.10
2018-08-10T00:10:31.595Z,18.20
2018-08-10T00:13:00.156Z,18.30
2018-08-10T00:15:28.686Z,18.40
2018-08-10T00:17:57.315Z,18.40
2018-08-10T00:20:25.923Z,18.30
2018-08-10T00:22:54.476Z,18.10
2018-08-10T00:25:23.089Z,18.00
2018-08-10T00:27:51.676Z,17.80
2018-08-10T00:30:20.539Z,17.80
2018-08-10T00:32:50.147Z,17.80
2018-08-10T00:35:18.795Z,17.80
2018-08-10T00:37:48.348Z,17.70
2018-08-10T00:40:19.400Z,17.70
2018-08-10T00:42:48.036Z,17.60
2018-08-10T00:45:17.255Z,17.70
2018-08-10T00:47:46.376Z,17.70
2018-08-10T00:50:15.972Z,17.80
2018-08-10T00:52:45.519Z,17.80
2018-08-10T00:55:15.622Z,18.00
2018-08-10T00:57:44.698Z,18.00
2018-08-10T01:00:17.879Z,18.10
2018-08-10T01:02:46.483Z,18.20
2018-08-10T01:05:15.065Z,18.20
2018-08-10T01:07:43.612Z,18.30
2018-08-10T01:10:14.896Z,18.40
2018-08-10T01:12:43.542Z,18.30
2018-08-10T01:15:13.926Z,18.20
2018-08-10T01:17:42.987Z,18.20
2018-08-10T01:20:17.845Z,18.20
2018-08-10T01:22:51.854Z,18.10
2018-08-10T01:25:21.942Z,18.00
2018-08-10T01:27:55.803Z,17.80
2018-08-10T01:30:25.168Z,17.70
2018-08-10T01:32:53.945Z,17.70
2018-08-10T01:35:23.043Z,17.80
2018-08-10T01:37:51.603Z,18.00
2018-08-10T01:40:20.103Z,18.00
2018-08-10T01:42:48.675Z,18.10
2018-08-10T01:45:17.499Z,18.20
2018-08-10T01:47:46.087Z,18.30
2018-08-10T01:50:14.690Z,18.30
2018-08-10T01:52:43.240Z,18.20
2018-08-10T01:55:11.980Z,18.10
2018-08-10T01:57:40.907Z,18.10
2018-08-10T02:00:09.942Z,18.00
2018-08-10T02:02:38.503Z,18.00
2018-08-10T02:05:09.094Z,18.00
2018-08-10T02:07:38.827Z,18.00
2018-08-10T02:10:10.683Z,18.10
2018-08-10T02:12:39.860Z,18.00
2018-08-10T02:15:10.832Z,17.90
2018-08-10T02:17:39.596Z,17.90
2018-08-10T02:20:10.352Z,17.90
2018-08-10T02:22:38.875Z,18.00
2018-08-10T02:25:08.935Z,17.80
2018-08-10T02:27:37.476Z,17.70
2018-08-10T02:30:08.041Z,17.70
2018-08-10T02:32:36.622Z,17.60
2018-08-10T02:35:05.355Z,17.50
2018-08-10T02:37:33.846Z,17.40
2018-08-10T02:40:02.386Z,17.50
2018-08-10T02:42:30.957Z,17.50
2018-08-10T02:44:59.648Z,17.60
2018-08-10T02:47:28.166Z,17.60
2018-08-10T02:49:56.931Z,17.60
2018-08-10T02:52:25.633Z,17.60
2018-08-10T02:54:54.497Z,17.60
2018-08-10T02:57:23.131Z,17.50
2018-08-10T02:59:51.672Z,17.40
2018-08-10T03:02:20.285Z,17.40
2018-08-10T03:04:48.829Z,17.40
2018-08-10T03:07:17.378Z,17.30
2018-08-10T03:09:45.971Z,17.40
2018-08-10T03:12:14.507Z,17.40
2018-08-10T03:14:43.484Z,17.50
2018-08-10T03:17:12.376Z,17.50
2018-08-10T03:19:40.939Z,17.50
2018-08-10T03:22:09.493Z,17.30
2018-08-10T03:24:38.220Z,17.30
2018-08-10T03:27:07.614Z,17.20
2018-08-10T03:29:36.499Z,17.20
2018-08-10T03:32:05.628Z,17.10
2018-08-10T03:34:34.204Z,17.10
2018-08-10T03:37:02.796Z,17.10
2018-08-10T03:39:31.329Z,17.20
2018-08-10T03:41:59.869Z,17.20
2018-08-10T03:44:28.402Z,17.30
2018-08-10T03:46:57.072Z,17.30
2018-08-10T03:49:25.685Z,17.40
2018-08-10T03:51:54.287Z,17.40
2018-08-10T03:54:22.774Z,17.40
2018-08-10T03:56:51.304Z,17.50
2018-08-10T03:59:19.854Z,17.50
2018-08-10T04:01:48.399Z,17.50
2018-08-10T04:04:16.997Z,17.50
2018-08-10T04:06:45.545Z,17.50
2018-08-10T04:09:14.083Z,17.60
2018-08-10T04:11:43.355Z,17.50
2018-08-10T04:14:11.962Z,17.50
2018-08-10T04:16:40.470Z,17.40
2018-08-10T04:19:08.972Z,17.50
2018-08-10T04:21:37.472Z,17.60
2018-08-10T04:24:06.034Z,17.70
2018-08-10T04:26:34.561Z,17.90
2018-08-10T04:29:03.072Z,18.20
2018-08-10T04:31:31.602Z,18.30
2018-08-10T04:34:00.115Z,18.30
2018-08-10T04:36:28.697Z,18.30
2018-08-10T04:38:57.269Z,18.20
2018-08-10T04:41:25.786Z,18.30
2018-08-10T04:43:54.363Z,18.30
2018-08-10T04:46:22.891Z,18.30
2018-08-10T04:48:51.443Z,18.30
2018-08-10T04:51:19.953Z,18.20
2018-08-10T04:53:48.491Z,18.20
2018-08-10T04:56:17.018Z,18.30
2018-08-10T04:58:45.567Z,18.30
2018-08-10T05:01:14.126Z,18.20
2018-08-10T05:03:42.824Z,18.00
2018-08-10T05:06:11.330Z,17.80
2018-08-10T05:08:39.831Z,17.80
2018-08-10T05:11:08.348Z,17.80
2018-08-10T05:13:36.953Z,17.80
2018-08-10T05:16:05.507Z,17.90
2018-08-10T05:18:34.044Z,17.90
2018-08-10T05:21:02.555Z,17.90
2018-08-10T05:23:31.052Z,17.80
2018-08-10T05:25:59.699Z,18.00
2018-08-10T05:28:28.195Z,18.20
2018-08-10T05:30:56.786Z,18.20
2018-08-10T05:33:25.343Z,18.20
2018-08-10T05:36:00.691Z,18.20
2018-08-10T05:38:29.221Z,18.30
2018-08-10T05:40:57.743Z,18.10
2018-08-10T05:43:26.310Z,17.90
2018-08-10T05:45:54.792Z,17.60
2018-08-10T05:48:23.311Z,17.30
2018-08-10T05:50:51.796Z,17.10
2018-08-10T05:53:20.285Z,16.90
2018-08-10T05:55:48.803Z,16.70
2018-08-10T05:58:17.315Z,16.60
2018-08-10T06:00:45.918Z,16.60
2018-08-10T06:03:14.373Z,16.60
2018-08-10T06:05:42.935Z,16.80
2018-08-10T06:08:11.419Z,17.00
2018-08-10T06:10:39.939Z,17.10
2018-08-10T06:13:08.499Z,17.10
2018-08-10T06:15:37.149Z,17.10
2018-08-10T06:18:05.706Z,16.80
2018-08-10T06:20:34.263Z,16.70
2018-08-10T06:23:02.804Z,16.60
2018-08-10T06:25:31.291Z,16.60
2018-08-10T06:27:59.804Z,16.70
2018-08-10T06:30:28.415Z,16.90
2018-08-10T06:32:56.946Z,16.90
2018-08-10T06:35:25.476Z,16.80
2018-08-10T06:37:54.017Z,16.80
2018-08-10T06:40:22.503Z,16.60
2018-08-10T06:42:50.999Z,16.50
2018-08-10T06:45:19.537Z,16.50
2018-08-10T06:47:48.059Z,16.50
2018-08-10T06:50:16.674Z,16.30
2018-08-10T06:52:45.063Z,16.30
2018-08-10T06:55:13.660Z,16.30
2018-08-10T06:57:42.199Z,16.40
2018-08-10T07:00:10.800Z,16.50
2018-08-10T07:02:39.309Z,16.60
2018-08-10T07:05:08.491Z,16.70
2018-08-10T07:07:37.356Z,16.70
2018-08-10T07:10:06.883Z,16.70
2018-08-10T07:12:35.379Z,16.70
2018-08-10T07:15:03.966Z,16.50
2018-08-10T07:17:32.536Z,16.50
2018-08-10T07:20:01.061Z,16.50
2018-08-10T07:22:29.621Z,16.70
2018-08-10T07:24:58.151Z,16.80
2018-08-10T07:27:26.724Z,16.80
2018-08-10T07:29:55.238Z,16.80
2018-08-10T07:32:23.787Z,16.70
2018-08-10T07:34:52.272Z,16.70
2018-08-10T07:37:20.866Z,16.70
2018-08-10T07:39:49.396Z,16.50
2018-08-10T07:42:17.887Z,16.40
2018-08-10T07:44:46.443Z,16.40
2018-08-10T07:47:14.987Z,16.50
2018-08-10T07:49:43.486Z,16.50
2018-08-10T07:52:12.037Z,16.40
2018-08-10T07:54:40.514Z,16.40
2018-08-10T07:57:09.045Z,16.50
2018-08-10T07:59:37.647Z,16.50
2018-08-10T08:02:06.260Z,16.60
2018-08-10T08:04:34.807Z,16.60
2018-08-10T08:07:03.371Z,16.40
2018-08-10T08:09:31.935Z,16.40
2018-08-10T08:12:03.483Z,16.50
2018-08-10T08:14:32.002Z,16.40
2018-08-10T08:17:00.633Z,16.40
2018-08-10T08:19:29.257Z,16.50
2018-08-10T08:22:17.451Z,16.40
2018-08-10T08:24:46.053Z,16.50
2018-08-10T08:27:15.874Z,16.50
2018-08-10T08:29:44.419Z,16.60
2018-08-10T08:32:13.188Z,16.60
2018-08-10T08:34:41.882Z,16.50
2018-08-10T08:37:10.871Z,16.20
2018-08-10T08:40:47.268Z,16.00
2018-08-10T08:43:25.651Z,15.80
2018-08-10T08:46:01.269Z,15.50
2018-08-10T08:48:31.250Z,15.50
2018-08-10T08:51:01.349Z,15.30
2018-08-10T08:53:29.932Z,15.30
2018-08-10T08:56:00.944Z,15.20
2018-08-10T08:58:30.093Z,15.10
2018-08-10T09:00:58.743Z,15.00
2018-08-10T09:03:38.905Z,15.00
2018-08-10T09:06:08.028Z,15.00
2018-08-10T09:08:36.626Z,15.10
2018-08-10T09:11:06.934Z,15.20
2018-08-10T09:14:40.596Z,15.20
2018-08-10T09:17:10.148Z,15.20
2018-08-10T09:19:39.117Z,15.20
2018-08-10T09:22:07.647Z,15.20
2018-08-10T09:24:36.219Z,15.10
2018-08-10T09:27:04.992Z,15.20
2018-08-10T09:29:34.299Z,15.20
2018-08-10T09:32:03.048Z,15.20
2018-08-10T09:34:31.667Z,15.20
2018-08-10T09:37:00.540Z,15.20
2018-08-10T09:39:29.720Z,15.30
2018-08-10T09:41:59.474Z,15.20
2018-08-10T09:44:28.307Z,15.10
2018-08-10T09:46:56.862Z,15.10
2018-08-10T09:49:26.998Z,15.20
2018-08-10T09:51:55.564Z,15.10
2018-08-10T09:54:24.128Z,15.10
2018-08-10T09:56:52.692Z,15.20
2018-08-10T09:59:21.321Z,15.20
2018-08-10T10:01:55.171Z,15.40
2018-08-10T10:04:23.691Z,15.30
2018-08-10T10:06:52.219Z,15.20
2018-08-10T10:09:20.752Z,15.10
2018-08-10T10:11:49.287Z,15.10
2018-08-10T10:14:17.808Z,15.00
2018-08-10T10:16:46.434Z,15.00
2018-08-10T10:19:15.012Z,15.00
2018-08-10T10:21:43.584Z,15.00
2018-08-10T10:24:12.195Z,15.10
2018-08-10T10:26:40.727Z,15.10
2018-08-10T10:29:09.299Z,15.20
2018-08-10T10:31:37.888Z,15.20
2018-08-10T10:34:06.548Z,15.10
2018-08-10T10:36:35.216Z,15.20
2018-08-10T10:39:05.984Z,15.20
2018-08-10T10:41:34.601Z,15.30
2018-08-10T10:44:03.092Z,15.40
2018-08-10T10:46:31.617Z,15.40
2018-08-10T10:49:00.206Z,15.40
2018-08-10T10:51:28.783Z,15.40
2018-08-10T10:53:57.303Z,15.40
2018-08-10T10:56:25.991Z,15.40
2018-08-10T10:58:54.549Z,15.60
2018-08-10T11:01:23.018Z,15.70
2018-08-10T11:03:51.551Z,15.90
2018-08-10T11:06:20.201Z,16.00
2018-08-10T11:08:48.667Z,16.20
2018-08-10T11:11:17.266Z,16.40
2018-08-10T11:13:45.839Z,16.50
2018-08-10T11:16:14.355Z,16.50
2018-08-10T11:18:43.052Z,16.50
2018-08-10T11:21:11.639Z,16.50
2018-08-10T11:23:40.192Z,16.50
2018-08-10T11:26:08.797Z,16.40
2018-08-10T11:28:37.260Z,16.40
2018-08-10T11:31:05.775Z,16.40
2018-08-10T11:33:34.380Z,16.60
2018-08-10T11:36:02.923Z,16.70
2018-08-10T11:38:31.571Z,16.80
2018-08-10T11:41:00.108Z,16.90
2018-08-10T11:43:28.658Z,16.80
2018-08-10T11:45:57.191Z,16.80
2018-08-10T11:48:25.762Z,16.80
2018-08-10T11:50:54.279Z,16.80
2018-08-10T11:53:22.791Z,16.70
2018-08-10T11:55:51.372Z,16.70
2018-08-10T11:58:19.891Z,16.90
2018-08-10T12:00:48.447Z,17.00
2018-08-10T12:03:16.992Z,17.00
2018-08-10T12:05:45.540Z,17.00
2018-08-10T12:08:14.116Z,16.90
2018-08-10T12:10:42.709Z,16.80
2018-08-10T12:13:11.232Z,16.70
2018-08-10T12:15:39.711Z,16.80
2018-08-10T12:18:08.344Z,16.80
2018-08-10T12:20:36.889Z,16.80
2018-08-10T12:23:05.372Z,16.80
2018-08-10T12:25:33.884Z,16.60
2018-08-10T12:28:02.428Z,16.50
2018-08-10T12:30:30.955Z,16.50
2018-08-10T12:32:59.479Z,16.40
2018-08-10T12:35:28.008Z,16.40
2018-08-10T12:37:56.574Z,16.30
2018-08-10T12:40:25.103Z,16.30
2018-08-10T12:42:53.647Z,16.20
2018-08-10T12:45:22.195Z,16.20
2018-08-10T12:47:50.875Z,16.20
2018-08-10T12:50:19.347Z,16.30
2018-08-10T12:52:47.866Z,16.30
2018-08-10T12:55:16.476Z,16.30
2018-08-10T12:57:45.021Z,16.40
2018-08-10T13:00:13.611Z,16.60
2018-08-10T13:02:42.601Z,16.80
2018-08-10T13:05:11.123Z,16.70
2018-08-10T13:07:39.708Z,16.70
2018-08-10T13:10:09.989Z,16.60
2018-08-10T13:12:38.517Z,16.70
2018-08-10T13:15:08.839Z,16.80
2018-08-10T13:17:37.392Z,16.80
2018-08-10T13:20:07.588Z,16.80
2018-08-10T13:22:36.380Z,16.80
2018-08-10T13:25:05.439Z,16.90
2018-08-10T13:27:34.254Z,17.00
2018-08-10T13:30:02.788Z,17.00
2018-08-10T13:32:31.388Z,17.00
2018-08-10T13:34:59.929Z,16.90
2018-08-10T13:37:28.439Z,16.90
2018-08-10T13:39:57.011Z,16.90
2018-08-10T13:42:25.520Z,17.00
2018-08-10T13:44:54.023Z,17.00
2018-08-10T13:47:22.612Z,17.00
2018-08-10T13:49:51.195Z,17.00
2018-08-10T13:52:19.731Z,17.10
2018-08-10T13:54:48.328Z,17.10
2018-08-10T13:57:16.931Z,17.10
2018-08-10T13:59:45.488Z,17.10
2018-08-10T14:02:13.996Z,17.20
2018-08-10T14:04:42.527Z,17.10
2018-08-10T14:07:11.139Z,17.10
2018-08-10T14:09:39.662Z,17.10
2018-08-10T14:12:08.254Z,17.20
2018-08-10T14:14:36.774Z,17.20
2018-08-10T14:17:05.302Z,17.30
2018-08-10T14:19:33.828Z,17.30
2018-08-10T14:22:02.355Z,17.40
2018-08-10T14:24:30.891Z,17.30
2018-08-10T14:26:59.379Z,17.30
2018-08-10T14:29:27.914Z,17.30
2018-08-10T14:31:56.415Z,17.30
2018-08-10T14:34:25.019Z,17.20
2018-08-10T14:36:53.543Z,17.10
2018-08-10T14:39:22.097Z,17.10
2018-08-10T14:41:50.589Z,17.20
2018-08-10T14:44:19.132Z,17.20
2018-08-10T14:46:47.772Z,17.10
2018-08-10T14:49:16.266Z,17.10
2018-08-10T14:51:44.782Z,17.10
2018-08-10T14:54:13.354Z,17.10
2018-08-10T14:56:41.902Z,17.10
2018-08-10T14:59:10.544Z,17.20
2018-08-10T15:01:39.099Z,17.10
2018-08-10T15:04:07.687Z,17.10
2018-08-10T15:06:36.378Z,17.20
2018-08-10T15:09:08.343Z,17.20
2018-08-10T15:11:36.915Z,17.10
2018-08-10T15:14:06.555Z,17.10
2018-08-10T15:16:35.123Z,17.10
2018-08-10T15:19:03.823Z,17.00
2018-08-10T15:21:32.344Z,17.10
2018-08-10T15:24:00.895Z,17.10
2018-08-10T15:26:29.455Z,17.10
2018-08-10T15:28:58.032Z,17.10
2018-08-10T15:31:26.563Z,17.10
2018-08-10T15:33:55.079Z,17.00
2018-08-10T15:36:23.650Z,17.10
2018-08-10T15:38:52.183Z,17.10
2018-08-10T15:41:20.691Z,17.10
2018-08-10T15:43:49.234Z,17.10
2018-08-10T15:46:17.808Z,17.10
2018-08-10T15:48:46.316Z,17.10
2018-08-10T15:51:14.865Z,17.00
2018-08-10T15:53:43.420Z,17.00
2018-08-10T15:56:12.006Z,16.90
2018-08-10T15:58:40.529Z,16.80
2018-08-10T16:01:09.115Z,16.80
2018-08-10T16:03:37.663Z,16.70
2018-08-10T16:06:06.283Z,16.80
2018-08-10T16:08:34.865Z,16.80
2018-08-10T16:11:03.438Z,16.90
2018-08-10T16:13:32.002Z,16.80
2018-08-10T16:16:00.559Z,16.70
2018-08-10T16:18:29.700Z,16.70
2018-08-10T16:20:58.235Z,16.60
2018-08-10T16:23:26.876Z,16.60
2018-08-10T16:25:55.412Z,16.60
2018-08-10T16:28:24.054Z,16.50
2018-08-10T16:30:52.631Z,16.50
2018-08-10T16:33:21.216Z,16.40
2018-08-10T16:35:49.815Z,16.50
2018-08-10T16:38:18.320Z,16.50
2018-08-10T16:40:46.933Z,16.50
2018-08-10T16:43:15.422Z,16.40
2018-08-10T16:45:44.032Z,16.40
2018-08-10T16:48:12.608Z,16.40
2018-08-10T16:50:41.169Z,16.40
2018-08-10T16:53:09.740Z,16.30
2018-08-10T16:55:38.302Z,16.20
2018-08-10T16:58:06.927Z,16.30
2018-08-10T17:00:35.476Z,16.30
2018-08-10T17:03:04.380Z,16.30
2018-08-10T17:05:32.920Z,16.40
2018-08-10T17:08:01.451Z,16.40
2018-08-10T17:10:57.075Z,16.40
2018-08-10T17:13:25.636Z,16.40
2018-08-10T17:15:54.238Z,16.40
2018-08-10T17:18:22.747Z,16.40
2018-08-10T17:20:51.332Z,16.40
2018-08-10T17:23:19.894Z,16.40
2018-08-10T17:25:48.481Z,16.40
2018-08-10T17:28:17.024Z,16.40
2018-08-10T17:30:45.556Z,16.40
2018-08-10T17:33:14.185Z,16.40
2018-08-10T17:35:42.717Z,16.40
2018-08-10T17:38:11.236Z,16.40
2018-08-10T17:40:39.861Z,16.40
2018-08-10T17:43:08.417Z,16.30
2018-08-10T17:45:37.055Z,16.30
2018-08-10T17:48:05.691Z,16.30
2018-08-10T17:50:34.249Z,16.30
2018-08-10T17:53:02.954Z,16.30
2018-08-10T17:55:31.480Z,16.20
2018-08-10T17:58:00.075Z,16.20
2018-08-10T18:00:28.984Z,16.20
2018-08-10T18:02:57.616Z,16.10
2018-08-10T18:05:26.132Z,16.00
2018-08-10T18:07:54.744Z,15.90
2018-08-10T18:10:23.309Z,15.90
2018-08-10T18:12:51.880Z,15.90
2018-08-10T18:15:20.962Z,15.90
2018-08-10T18:17:49.744Z,15.80
2018-08-10T18:20:19.901Z,15.80
2018-08-10T18:22:49.774Z,15.80
2018-08-10T18:25:19.628Z,15.80
2018-08-10T18:27:48.227Z,15.80
2018-08-10T18:30:24.740Z,15.80
2018-08-10T18:32:53.450Z,15.80
2018-08-10T18:35:22.050Z,15.80
2018-08-10T18:37:51.243Z,15.80
2018-08-10T18:40:20.420Z,15.80
2018-08-10T18:42:49.641Z,15.70
2018-08-10T18:48:09.404Z,15.60
2018-08-10T18:50:38.063Z,15.60
2018-08-10T18:53:06.605Z,15.60
2018-08-10T18:55:35.202Z,15.60
2018-08-10T18:58:03.813Z,15.50
2018-08-10T19:00:32.397Z,15.50
2018-08-10T19:03:01.004Z,15.40
2018-08-10T19:05:29.547Z,15.50
2018-08-10T19:07:58.177Z,15.50
2018-08-10T19:10:28.607Z,15.50
2018-08-10T19:12:57.192Z,15.50
2018-08-10T19:15:25.758Z,15.50
2018-08-10T19:17:54.319Z,15.40
2018-08-10T19:20:22.972Z,15.40
2018-08-10T19:22:51.686Z,15.40
2018-08-10T19:25:20.296Z,15.30
2018-08-10T19:27:48.893Z,15.30
2018-08-10T19:30:19.046Z,15.20
2018-08-10T19:32:48.341Z,15.10
2018-08-10T19:35:17.779Z,15.20
2018-08-10T19:37:46.359Z,15.20
2018-08-10T19:40:16.155Z,15.20
2018-08-10T19:42:44.735Z,15.20
2018-08-10T19:45:14.436Z,15.30
2018-08-10T19:47:43.135Z,15.20
2018-08-10T19:50:13.430Z,15.20
2018-08-10T19:52:42.263Z,15.20
2018-08-10T19:55:12.390Z,15.10
2018-08-10T19:57:41.014Z,15.00
2018-08-10T20:00:11.432Z,15.10
2018-08-10T20:02:40.036Z,15.10
2018-08-10T20:05:09.425Z,15.10
2018-08-10T20:07:38.407Z,15.10
2018-08-10T20:10:08.372Z,15.10
2018-08-10T20:12:37.225Z,15.20
2018-08-10T20:15:09.164Z,15.20
2018-08-10T20:17:37.783Z,15.10
2018-08-10T20:20:07.059Z,15.00
2018-08-10T20:22:35.625Z,14.90
2018-08-10T20:25:04.711Z,15.00
2018-08-10T20:27:33.318Z,14.90
2018-08-10T20:30:01.851Z,14.70
2018-08-10T20:32:30.445Z,14.70
2018-08-10T20:34:59.043Z,14.70
2018-08-10T20:37:27.668Z,14.70
2018-08-10T20:39:56.268Z,14.70
2018-08-10T20:42:24.824Z,14.70
2018-08-10T20:44:53.410Z,14.70
2018-08-10T20:47:22.004Z,14.70
2018-08-10T20:49:50.606Z,14.70
2018-08-10T20:52:19.188Z,14.50
2018-08-10T20:54:47.740Z,14.40
2018-08-10T20:57:16.361Z,14.30
2018-08-10T20:59:44.911Z,14.20
2018-08-10T21:02:13.454Z,14.10
2018-08-10T21:04:42.028Z,14.00
2018-08-10T21:07:10.564Z,14.00
2018-08-10T21:09:39.098Z,13.90
2018-08-10T21:12:07.676Z,13.90
2018-08-10T21:14:36.269Z,14.00
2018-08-10T21:17:04.930Z,14.00
2018-08-10T21:19:33.506Z,14.00
2018-08-10T21:22:02.137Z,14.00
2018-08-10T21:24:30.699Z,14.00
2018-08-10T21:26:59.265Z,13.90
2018-08-10T21:29:27.862Z,13.90
2018-08-10T21:31:56.440Z,13.90
2018-08-10T21:34:25.040Z,13.90
2018-08-10T21:36:53.614Z,13.80
2018-08-10T21:39:22.191Z,13.90
2018-08-10T21:41:50.768Z,13.90
2018-08-10T21:44:19.339Z,13.80
2018-08-10T21:46:47.939Z,13.70
2018-08-10T21:49:16.536Z,13.70
2018-08-10T21:51:45.055Z,13.80
2018-08-10T21:54:13.630Z,13.80
2018-08-10T21:56:42.249Z,13.80
2018-08-10T21:59:10.855Z,13.80
2018-08-10T22:01:39.550Z,13.80
2018-08-10T22:04:08.148Z,13.70
2018-08-10T22:06:36.716Z,13.70
2018-08-10T22:09:06.649Z,13.70
2018-08-10T22:11:35.181Z,13.60
2018-08-10T22:14:09.014Z,13.60
2018-08-10T22:16:42.709Z,13.50
2018-08-10T22:19:14.760Z,13.50
2018-08-10T22:21:44.547Z,13.40
2018-08-10T22:24:13.425Z,13.40
2018-08-10T22:26:42.080Z,13.30
2018-08-10T22:29:10.850Z,13.30
2018-08-10T22:31:39.612Z,13.20
2018-08-10T22:34:08.646Z,13.20
2018-08-10T22:36:37.191Z,13.20
2018-08-10T22:39:08.276Z,13.20
2018-08-10T22:41:36.957Z,13.20
2018-08-10T22:44:05.548Z,13.20
2018-08-10T22:46:34.104Z,13.10
2018-08-10T22:49:02.659Z,13.10
2018-08-10T22:51:31.189Z,13.10
2018-08-10T22:53:59.760Z,13.00
2018-08-10T22:56:28.328Z,12.90
2018-08-10T22:58:56.880Z,12.90
2018-08-10T23:01:25.452Z,12.90
2018-08-10T23:03:54.030Z,12.90
2018-08-10T23:06:22.596Z,13.00
2018-08-10T23:08:51.240Z,13.00
2018-08-10T23:11:19.738Z,13.00
2018-08-10T23:13:48.292Z,13.00
2018-08-10T23:16:16.966Z,12.90
2018-08-10T23:18:45.452Z,12.90
2018-08-10T23:21:14.021Z,12.90
2018-08-10T23:23:42.634Z,12.90
2018-08-10T23:26:11.147Z,12.90
2018-08-10T23:28:39.736Z,13.00
2018-08-10T23:31:08.368Z,13.00
2018-08-10T23:33:36.883Z,13.00
2018-08-10T23:36:05.467Z,13.00
2018-08-10T23:38:34.043Z,13.00
2018-08-10T23:41:02.664Z,13.00
2018-08-10T23:43:31.239Z,13.00
2018-08-10T23:45:59.861Z,13.00
2018-08-10T23:48:28.425Z,13.00
2018-08-10T23:50:56.946Z,13.00
2018-08-10T23:53:25.533Z,13.00
2018-08-10T23:55:54.111Z,12.90
2018-08-10T23:58:22.790Z,12.90
